sensor_id;sensor_type;location;lat;lon;timestamp;P1;durP1;ratioP1;P2;durP2;ratioP2
25351;SDS011;13304;48.464;8.712;2023-06-26T00:01:19;7.65;;;6.05;;
25351;SDS011;13304;48.464;8.712;2023-06-26T00:03:46;9.00;;;6.20;;
25351;SDS011;13304;48.464;8.712;2023-06-26T00:06:12;9.93;;;6.82;;
25351;SDS011;13304;48.464;8.712;2023-06-26T00:08:38;9.75;;;6.35;;
25351;SDS011;13304;48.464;8.712;2023-06-26T00:11:03;8.82;;;6.63;;
25351;SDS011;13304;48.464;8.712;2023-06-26T00:13:29;9.77;;;6.93;;
25351;SDS011;13304;48.464;8.712;2023-06-26T00:15:55;6.65;;;5.80;;
25351;SDS011;13304;48.464;8.712;2023-06-26T00:18:20;13.30;;;6.45;;
25351;SDS011;13304;48.464;8.712;2023-06-26T00:20:48;9.23;;;6.40;;
25351;SDS011;13304;48.464;8.712;2023-06-26T00:23:16;9.52;;;6.32;;
25351;SDS011;13304;48.464;8.712;2023-06-26T00:25:43;8.45;;;6.15;;
25351;SDS011;13304;48.464;8.712;2023-06-26T00:28:09;7.63;;;6.35;;
25351;SDS011;13304;48.464;8.712;2023-06-26T00:30:35;10.52;;;6.70;;
25351;SDS011;13304;48.464;8.712;2023-06-26T00:33:01;8.13;;;6.20;;
25351;SDS011;13304;48.464;8.712;2023-06-26T00:35:27;9.60;;;6.50;;
25351;SDS011;13304;48.464;8.712;2023-06-26T00:37:52;10.48;;;6.63;;
25351;SDS011;13304;48.464;8.712;2023-06-26T00:40:18;7.47;;;6.20;;
25351;SDS011;13304;48.464;8.712;2023-06-26T00:42:44;9.82;;;6.65;;
25351;SDS011;13304;48.464;8.712;2023-06-26T00:45:09;8.48;;;6.60;;
25351;SDS011;13304;48.464;8.712;2023-06-26T00:47:35;8.82;;;6.45;;
25351;SDS011;13304;48.464;8.712;2023-06-26T00:50:02;10.23;;;6.15;;
25351;SDS011;13304;48.464;8.712;2023-06-26T00:52:28;9.88;;;6.97;;
25351;SDS011;13304;48.464;8.712;2023-06-26T00:54:55;10.38;;;6.35;;
25351;SDS011;13304;48.464;8.712;2023-06-26T00:57:22;9.00;;;6.28;;
25351;SDS011;13304;48.464;8.712;2023-06-26T00:59:48;10.07;;;6.95;;
25351;SDS011;13304;48.464;8.712;2023-06-26T01:02:14;8.57;;;6.63;;
25351;SDS011;13304;48.464;8.712;2023-06-26T01:04:45;9.43;;;6.45;;
25351;SDS011;13304;48.464;8.712;2023-06-26T01:07:12;9.75;;;6.78;;
25351;SDS011;13304;48.464;8.712;2023-06-26T01:09:40;8.48;;;6.85;;
25351;SDS011;13304;48.464;8.712;2023-06-26T01:12:07;9.45;;;7.00;;
25351;SDS011;13304;48.464;8.712;2023-06-26T01:14:36;8.20;;;6.30;;
25351;SDS011;13304;48.464;8.712;2023-06-26T01:17:02;8.45;;;7.25;;
25351;SDS011;13304;48.464;8.712;2023-06-26T01:19:29;9.82;;;7.25;;
25351;SDS011;13304;48.464;8.712;2023-06-26T01:21:58;10.23;;;7.40;;
25351;SDS011;13304;48.464;8.712;2023-06-26T01:24:45;9.35;;;7.00;;
25351;SDS011;13304;48.464;8.712;2023-06-26T01:27:30;9.70;;;7.10;;
25351;SDS011;13304;48.464;8.712;2023-06-26T01:29:58;9.98;;;6.53;;
25351;SDS011;13304;48.464;8.712;2023-06-26T01:32:28;10.95;;;7.60;;
25351;SDS011;13304;48.464;8.712;2023-06-26T01:34:55;10.98;;;6.85;;
25351;SDS011;13304;48.464;8.712;2023-06-26T01:37:21;10.05;;;7.45;;
25351;SDS011;13304;48.464;8.712;2023-06-26T01:39:46;11.18;;;7.32;;
25351;SDS011;13304;48.464;8.712;2023-06-26T01:42:12;8.65;;;6.60;;
25351;SDS011;13304;48.464;8.712;2023-06-26T01:44:40;11.55;;;7.65;;
25351;SDS011;13304;48.464;8.712;2023-06-26T01:47:10;9.25;;;7.47;;
25351;SDS011;13304;48.464;8.712;2023-06-26T01:53:02;9.50;;;7.05;;
25351;SDS011;13304;48.464;8.712;2023-06-26T01:55:30;10.90;;;7.10;;
25351;SDS011;13304;48.464;8.712;2023-06-26T01:58:05;9.32;;;7.18;;
25351;SDS011;13304;48.464;8.712;2023-06-26T02:00:31;10.55;;;7.40;;
25351;SDS011;13304;48.464;8.712;2023-06-26T02:02:58;9.20;;;7.07;;
25351;SDS011;13304;48.464;8.712;2023-06-26T02:05:24;9.32;;;7.63;;
25351;SDS011;13304;48.464;8.712;2023-06-26T02:07:50;8.80;;;7.22;;
25351;SDS011;13304;48.464;8.712;2023-06-26T02:10:16;10.15;;;7.55;;
25351;SDS011;13304;48.464;8.712;2023-06-26T02:12:42;11.77;;;7.60;;
25351;SDS011;13304;48.464;8.712;2023-06-26T02:15:08;9.30;;;7.40;;
25351;SDS011;13304;48.464;8.712;2023-06-26T02:17:34;11.57;;;7.65;;
25351;SDS011;13304;48.464;8.712;2023-06-26T02:20:00;9.35;;;7.43;;
25351;SDS011;13304;48.464;8.712;2023-06-26T02:22:25;8.10;;;6.65;;
25351;SDS011;13304;48.464;8.712;2023-06-26T02:24:53;9.20;;;7.05;;
25351;SDS011;13304;48.464;8.712;2023-06-26T02:27:19;12.13;;;7.35;;
25351;SDS011;13304;48.464;8.712;2023-06-26T02:29:45;10.27;;;7.75;;
25351;SDS011;13304;48.464;8.712;2023-06-26T02:32:10;9.45;;;7.32;;
25351;SDS011;13304;48.464;8.712;2023-06-26T02:34:36;11.18;;;7.90;;
25351;SDS011;13304;48.464;8.712;2023-06-26T02:37:02;11.35;;;7.72;;
25351;SDS011;13304;48.464;8.712;2023-06-26T02:39:28;13.25;;;8.02;;
25351;SDS011;13304;48.464;8.712;2023-06-26T02:41:53;9.65;;;7.18;;
25351;SDS011;13304;48.464;8.712;2023-06-26T02:44:19;9.20;;;7.30;;
25351;SDS011;13304;48.464;8.712;2023-06-26T02:46:46;9.90;;;7.32;;
25351;SDS011;13304;48.464;8.712;2023-06-26T02:49:12;10.05;;;7.70;;
25351;SDS011;13304;48.464;8.712;2023-06-26T02:51:37;9.93;;;7.78;;
25351;SDS011;13304;48.464;8.712;2023-06-26T02:54:03;10.60;;;8.30;;
25351;SDS011;13304;48.464;8.712;2023-06-26T02:56:29;10.18;;;7.55;;
25351;SDS011;13304;48.464;8.712;2023-06-26T02:58:55;10.48;;;7.00;;
25351;SDS011;13304;48.464;8.712;2023-06-26T03:01:21;11.18;;;7.53;;
25351;SDS011;13304;48.464;8.712;2023-06-26T03:03:47;12.65;;;8.15;;
25351;SDS011;13304;48.464;8.712;2023-06-26T03:06:13;11.20;;;7.80;;
25351;SDS011;13304;48.464;8.712;2023-06-26T03:08:39;9.45;;;7.72;;
25351;SDS011;13304;48.464;8.712;2023-06-26T03:11:05;8.43;;;6.72;;
25351;SDS011;13304;48.464;8.712;2023-06-26T03:13:35;13.35;;;7.10;;
25351;SDS011;13304;48.464;8.712;2023-06-26T03:16:01;11.00;;;8.10;;
25351;SDS011;13304;48.464;8.712;2023-06-26T03:18:27;9.77;;;7.18;;
25351;SDS011;13304;48.464;8.712;2023-06-26T03:20:55;11.20;;;7.95;;
25351;SDS011;13304;48.464;8.712;2023-06-26T03:23:22;9.88;;;7.30;;
25351;SDS011;13304;48.464;8.712;2023-06-26T03:25:48;9.95;;;7.60;;
25351;SDS011;13304;48.464;8.712;2023-06-26T03:28:14;8.93;;;7.18;;
25351;SDS011;13304;48.464;8.712;2023-06-26T03:30:40;10.00;;;7.68;;
25351;SDS011;13304;48.464;8.712;2023-06-26T03:33:06;9.57;;;7.43;;
25351;SDS011;13304;48.464;8.712;2023-06-26T03:35:32;11.65;;;8.05;;
25351;SDS011;13304;48.464;8.712;2023-06-26T03:37:57;9.20;;;7.45;;
25351;SDS011;13304;48.464;8.712;2023-06-26T03:40:24;10.48;;;7.57;;
25351;SDS011;13304;48.464;8.712;2023-06-26T03:42:49;9.77;;;7.90;;
25351;SDS011;13304;48.464;8.712;2023-06-26T03:45:15;9.60;;;7.45;;
25351;SDS011;13304;48.464;8.712;2023-06-26T03:47:41;10.98;;;7.97;;
25351;SDS011;13304;48.464;8.712;2023-06-26T03:50:07;9.35;;;7.43;;
25351;SDS011;13304;48.464;8.712;2023-06-26T03:52:33;12.70;;;7.63;;
25351;SDS011;13304;48.464;8.712;2023-06-26T03:54:58;11.85;;;7.75;;
25351;SDS011;13304;48.464;8.712;2023-06-26T03:57:24;11.45;;;7.60;;
25351;SDS011;13304;48.464;8.712;2023-06-26T03:59:51;9.63;;;7.40;;
25351;SDS011;13304;48.464;8.712;2023-06-26T04:02:17;15.88;;;7.53;;
25351;SDS011;13304;48.464;8.712;2023-06-26T04:04:43;9.70;;;7.32;;
25351;SDS011;13304;48.464;8.712;2023-06-26T04:07:09;13.05;;;7.50;;
25351;SDS011;13304;48.464;8.712;2023-06-26T04:09:35;11.23;;;7.20;;
25351;SDS011;13304;48.464;8.712;2023-06-26T04:12:01;13.50;;;7.95;;
25351;SDS011;13304;48.464;8.712;2023-06-26T04:14:27;8.02;;;6.93;;
25351;SDS011;13304;48.464;8.712;2023-06-26T04:16:53;9.10;;;7.22;;
25351;SDS011;13304;48.464;8.712;2023-06-26T04:19:19;12.02;;;7.30;;
25351;SDS011;13304;48.464;8.712;2023-06-26T04:21:44;9.75;;;7.18;;
25351;SDS011;13304;48.464;8.712;2023-06-26T04:24:10;10.45;;;7.20;;
25351;SDS011;13304;48.464;8.712;2023-06-26T04:26:36;10.20;;;7.50;;
25351;SDS011;13304;48.464;8.712;2023-06-26T04:29:04;10.13;;;7.47;;
25351;SDS011;13304;48.464;8.712;2023-06-26T04:31:32;11.57;;;8.35;;
25351;SDS011;13304;48.464;8.712;2023-06-26T04:33:58;9.05;;;7.20;;
25351;SDS011;13304;48.464;8.712;2023-06-26T04:36:24;10.35;;;7.47;;
25351;SDS011;13304;48.464;8.712;2023-06-26T04:38:53;8.45;;;6.88;;
25351;SDS011;13304;48.464;8.712;2023-06-26T04:41:23;10.60;;;7.10;;
25351;SDS011;13304;48.464;8.712;2023-06-26T04:43:49;9.63;;;7.40;;
25351;SDS011;13304;48.464;8.712;2023-06-26T04:46:15;9.05;;;7.47;;
25351;SDS011;13304;48.464;8.712;2023-06-26T04:48:41;8.85;;;6.90;;
25351;SDS011;13304;48.464;8.712;2023-06-26T04:51:10;9.45;;;7.35;;
25351;SDS011;13304;48.464;8.712;2023-06-26T04:53:36;11.35;;;7.40;;
25351;SDS011;13304;48.464;8.712;2023-06-26T04:56:02;10.43;;;7.10;;
25351;SDS011;13304;48.464;8.712;2023-06-26T04:58:28;8.75;;;6.70;;
25351;SDS011;13304;48.464;8.712;2023-06-26T05:00:53;8.48;;;6.32;;
25351;SDS011;13304;48.464;8.712;2023-06-26T05:03:23;11.00;;;7.28;;
25351;SDS011;13304;48.464;8.712;2023-06-26T05:05:49;10.35;;;7.72;;
25351;SDS011;13304;48.464;8.712;2023-06-26T05:10:46;8.35;;;6.93;;
25351;SDS011;13304;48.464;8.712;2023-06-26T05:13:12;8.40;;;7.00;;
25351;SDS011;13304;48.464;8.712;2023-06-26T05:15:40;14.88;;;7.38;;
25351;SDS011;13304;48.464;8.712;2023-06-26T05:18:07;10.07;;;6.90;;
25351;SDS011;13304;48.464;8.712;2023-06-26T05:20:33;12.35;;;7.28;;
25351;SDS011;13304;48.464;8.712;2023-06-26T05:23:01;11.68;;;6.95;;
25351;SDS011;13304;48.464;8.712;2023-06-26T05:25:27;15.70;;;7.30;;
25351;SDS011;13304;48.464;8.712;2023-06-26T05:27:55;12.07;;;7.15;;
25351;SDS011;13304;48.464;8.712;2023-06-26T05:30:22;10.70;;;6.57;;
25351;SDS011;13304;48.464;8.712;2023-06-26T05:32:50;8.02;;;6.18;;
25351;SDS011;13304;48.464;8.712;2023-06-26T05:35:17;8.77;;;6.63;;
25351;SDS011;13304;48.464;8.712;2023-06-26T05:37:45;9.52;;;7.25;;
25351;SDS011;13304;48.464;8.712;2023-06-26T05:40:12;8.80;;;6.38;;
25351;SDS011;13304;48.464;8.712;2023-06-26T05:42:38;9.02;;;6.68;;
25351;SDS011;13304;48.464;8.712;2023-06-26T05:45:04;8.60;;;6.47;;
25351;SDS011;13304;48.464;8.712;2023-06-26T05:47:31;7.97;;;6.35;;
25351;SDS011;13304;48.464;8.712;2023-06-26T05:49:57;8.25;;;6.47;;
25351;SDS011;13304;48.464;8.712;2023-06-26T05:52:23;8.63;;;6.60;;
25351;SDS011;13304;48.464;8.712;2023-06-26T05:54:49;9.23;;;6.93;;
25351;SDS011;13304;48.464;8.712;2023-06-26T05:57:15;8.60;;;6.43;;
25351;SDS011;13304;48.464;8.712;2023-06-26T05:59:42;8.93;;;6.85;;
25351;SDS011;13304;48.464;8.712;2023-06-26T06:02:08;11.13;;;6.57;;
25351;SDS011;13304;48.464;8.712;2023-06-26T06:04:34;7.85;;;6.28;;
25351;SDS011;13304;48.464;8.712;2023-06-26T06:07:02;8.50;;;6.22;;
25351;SDS011;13304;48.464;8.712;2023-06-26T06:09:28;11.05;;;6.72;;
25351;SDS011;13304;48.464;8.712;2023-06-26T06:11:53;9.68;;;6.82;;
25351;SDS011;13304;48.464;8.712;2023-06-26T06:14:19;10.32;;;7.20;;
25351;SDS011;13304;48.464;8.712;2023-06-26T06:16:45;8.90;;;6.50;;
25351;SDS011;13304;48.464;8.712;2023-06-26T06:19:11;15.85;;;8.07;;
25351;SDS011;13304;48.464;8.712;2023-06-26T06:21:38;8.65;;;5.65;;
25351;SDS011;13304;48.464;8.712;2023-06-26T06:24:04;10.40;;;7.13;;
25351;SDS011;13304;48.464;8.712;2023-06-26T06:26:32;7.78;;;6.07;;
25351;SDS011;13304;48.464;8.712;2023-06-26T06:28:58;12.35;;;6.75;;
25351;SDS011;13304;48.464;8.712;2023-06-26T06:31:24;14.20;;;6.68;;
25351;SDS011;13304;48.464;8.712;2023-06-26T06:33:49;11.85;;;6.95;;
25351;SDS011;13304;48.464;8.712;2023-06-26T06:36:15;11.38;;;6.28;;
25351;SDS011;13304;48.464;8.712;2023-06-26T06:38:43;9.48;;;6.93;;
25351;SDS011;13304;48.464;8.712;2023-06-26T06:41:09;9.60;;;6.30;;
25351;SDS011;13304;48.464;8.712;2023-06-26T06:43:35;10.15;;;6.22;;
25351;SDS011;13304;48.464;8.712;2023-06-26T06:46:01;12.82;;;6.45;;
25351;SDS011;13304;48.464;8.712;2023-06-26T06:48:27;10.05;;;6.05;;
25351;SDS011;13304;48.464;8.712;2023-06-26T06:50:53;7.38;;;6.15;;
25351;SDS011;13304;48.464;8.712;2023-06-26T06:53:19;7.70;;;6.03;;
25351;SDS011;13304;48.464;8.712;2023-06-26T06:55:48;7.93;;;5.68;;
25351;SDS011;13304;48.464;8.712;2023-06-26T06:58:14;7.28;;;6.43;;
25351;SDS011;13304;48.464;8.712;2023-06-26T07:00:41;16.13;;;5.82;;
25351;SDS011;13304;48.464;8.712;2023-06-26T07:03:07;7.03;;;5.93;;
25351;SDS011;13304;48.464;8.712;2023-06-26T07:05:33;8.18;;;5.80;;
25351;SDS011;13304;48.464;8.712;2023-06-26T07:08:01;6.78;;;5.20;;
25351;SDS011;13304;48.464;8.712;2023-06-26T07:10:28;8.35;;;6.00;;
25351;SDS011;13304;48.464;8.712;2023-06-26T07:12:54;7.40;;;5.43;;
25351;SDS011;13304;48.464;8.712;2023-06-26T07:15:19;7.38;;;5.90;;
25351;SDS011;13304;48.464;8.712;2023-06-26T07:17:45;5.93;;;5.22;;
25351;SDS011;13304;48.464;8.712;2023-06-26T07:20:11;6.95;;;5.70;;
25351;SDS011;13304;48.464;8.712;2023-06-26T07:22:40;8.77;;;6.70;;
25351;SDS011;13304;48.464;8.712;2023-06-26T07:25:06;6.40;;;5.15;;
25351;SDS011;13304;48.464;8.712;2023-06-26T07:27:38;6.15;;;5.55;;
25351;SDS011;13304;48.464;8.712;2023-06-26T07:30:04;6.88;;;5.47;;
25351;SDS011;13304;48.464;8.712;2023-06-26T07:32:31;7.32;;;5.90;;
25351;SDS011;13304;48.464;8.712;2023-06-26T07:34:56;10.15;;;6.18;;
25351;SDS011;13304;48.464;8.712;2023-06-26T07:37:22;6.35;;;5.03;;
25351;SDS011;13304;48.464;8.712;2023-06-26T07:39:48;8.60;;;5.78;;
25351;SDS011;13304;48.464;8.712;2023-06-26T07:42:14;6.57;;;5.78;;
25351;SDS011;13304;48.464;8.712;2023-06-26T07:44:41;6.35;;;5.50;;
25351;SDS011;13304;48.464;8.712;2023-06-26T07:47:08;8.68;;;5.10;;
25351;SDS011;13304;48.464;8.712;2023-06-26T07:49:34;6.47;;;5.40;;
25351;SDS011;13304;48.464;8.712;2023-06-26T07:52:00;8.05;;;5.72;;
25351;SDS011;13304;48.464;8.712;2023-06-26T07:54:26;9.77;;;5.47;;
25351;SDS011;13304;48.464;8.712;2023-06-26T07:56:58;6.57;;;5.60;;
25351;SDS011;13304;48.464;8.712;2023-06-26T07:59:25;12.05;;;5.50;;
25351;SDS011;13304;48.464;8.712;2023-06-26T08:01:52;7.53;;;5.13;;
25351;SDS011;13304;48.464;8.712;2023-06-26T08:04:19;11.30;;;5.57;;
25351;SDS011;13304;48.464;8.712;2023-06-26T08:06:50;6.53;;;5.13;;
25351;SDS011;13304;48.464;8.712;2023-06-26T08:09:18;6.88;;;5.18;;
25351;SDS011;13304;48.464;8.712;2023-06-26T08:11:45;6.53;;;4.80;;
25351;SDS011;13304;48.464;8.712;2023-06-26T08:14:11;6.68;;;5.38;;
25351;SDS011;13304;48.464;8.712;2023-06-26T08:16:38;4.78;;;4.28;;
25351;SDS011;13304;48.464;8.712;2023-06-26T08:19:04;5.53;;;4.72;;
25351;SDS011;13304;48.464;8.712;2023-06-26T08:21:29;7.15;;;4.38;;
25351;SDS011;13304;48.464;8.712;2023-06-26T08:23:55;5.28;;;4.55;;
25351;SDS011;13304;48.464;8.712;2023-06-26T08:26:21;6.65;;;4.47;;
25351;SDS011;13304;48.464;8.712;2023-06-26T08:28:47;6.22;;;4.60;;
25351;SDS011;13304;48.464;8.712;2023-06-26T08:31:12;14.45;;;5.10;;
25351;SDS011;13304;48.464;8.712;2023-06-26T08:33:38;14.20;;;4.85;;
25351;SDS011;13304;48.464;8.712;2023-06-26T08:36:04;8.32;;;4.82;;
25351;SDS011;13304;48.464;8.712;2023-06-26T08:38:30;7.72;;;5.10;;
25351;SDS011;13304;48.464;8.712;2023-06-26T08:40:55;6.00;;;4.60;;
25351;SDS011;13304;48.464;8.712;2023-06-26T08:43:21;5.63;;;4.80;;
25351;SDS011;13304;48.464;8.712;2023-06-26T08:45:47;5.30;;;4.68;;
25351;SDS011;13304;48.464;8.712;2023-06-26T08:48:16;6.18;;;4.93;;
25351;SDS011;13304;48.464;8.712;2023-06-26T08:50:43;6.72;;;4.85;;
25351;SDS011;13304;48.464;8.712;2023-06-26T08:53:10;7.45;;;4.78;;
25351;SDS011;13304;48.464;8.712;2023-06-26T08:55:57;8.02;;;4.85;;
25351;SDS011;13304;48.464;8.712;2023-06-26T08:58:23;9.25;;;4.72;;
25351;SDS011;13304;48.464;8.712;2023-06-26T09:00:49;6.57;;;4.72;;
25351;SDS011;13304;48.464;8.712;2023-06-26T09:03:15;5.63;;;4.72;;
25351;SDS011;13304;48.464;8.712;2023-06-26T09:05:42;8.43;;;4.55;;
25351;SDS011;13304;48.464;8.712;2023-06-26T09:08:07;5.75;;;4.60;;
25351;SDS011;13304;48.464;8.712;2023-06-26T09:10:33;6.25;;;4.95;;
25351;SDS011;13304;48.464;8.712;2023-06-26T09:12:59;5.90;;;4.95;;
25351;SDS011;13304;48.464;8.712;2023-06-26T09:15:36;9.20;;;4.88;;
25351;SDS011;13304;48.464;8.712;2023-06-26T09:18:04;7.15;;;4.95;;
25351;SDS011;13304;48.464;8.712;2023-06-26T09:20:30;6.03;;;4.72;;
25351;SDS011;13304;48.464;8.712;2023-06-26T09:22:58;6.25;;;4.53;;
25351;SDS011;13304;48.464;8.712;2023-06-26T09:25:25;11.55;;;4.88;;
25351;SDS011;13304;48.464;8.712;2023-06-26T09:27:51;5.63;;;5.00;;
25351;SDS011;13304;48.464;8.712;2023-06-26T09:30:18;9.48;;;4.80;;
25351;SDS011;13304;48.464;8.712;2023-06-26T09:32:44;7.07;;;5.07;;
25351;SDS011;13304;48.464;8.712;2023-06-26T09:35:11;7.03;;;5.10;;
25351;SDS011;13304;48.464;8.712;2023-06-26T09:37:37;6.07;;;4.80;;
25351;SDS011;13304;48.464;8.712;2023-06-26T09:40:03;8.38;;;4.68;;
25351;SDS011;13304;48.464;8.712;2023-06-26T09:42:33;5.55;;;4.97;;
25351;SDS011;13304;48.464;8.712;2023-06-26T09:44:58;6.40;;;4.82;;
25351;SDS011;13304;48.464;8.712;2023-06-26T09:47:25;6.18;;;4.90;;
25351;SDS011;13304;48.464;8.712;2023-06-26T09:49:51;8.45;;;5.20;;
25351;SDS011;13304;48.464;8.712;2023-06-26T09:52:20;6.38;;;5.10;;
25351;SDS011;13304;48.464;8.712;2023-06-26T09:54:45;6.03;;;4.75;;
25351;SDS011;13304;48.464;8.712;2023-06-26T09:57:12;6.47;;;5.25;;
25351;SDS011;13304;48.464;8.712;2023-06-26T09:59:42;6.07;;;5.25;;
25351;SDS011;13304;48.464;8.712;2023-06-26T10:02:10;8.10;;;5.22;;
25351;SDS011;13304;48.464;8.712;2023-06-26T10:04:37;7.18;;;5.35;;
25351;SDS011;13304;48.464;8.712;2023-06-26T10:07:06;7.70;;;5.38;;
25351;SDS011;13304;48.464;8.712;2023-06-26T10:09:36;6.65;;;5.43;;
25351;SDS011;13304;48.464;8.712;2023-06-26T10:12:06;6.70;;;5.55;;
25351;SDS011;13304;48.464;8.712;2023-06-26T10:14:43;5.78;;;5.18;;
25351;SDS011;13304;48.464;8.712;2023-06-26T10:17:10;5.93;;;4.93;;
25351;SDS011;13304;48.464;8.712;2023-06-26T10:19:39;8.82;;;5.72;;
25351;SDS011;13304;48.464;8.712;2023-06-26T10:22:08;6.90;;;5.72;;
25351;SDS011;13304;48.464;8.712;2023-06-26T10:24:35;6.10;;;4.93;;
25351;SDS011;13304;48.464;8.712;2023-06-26T10:27:11;6.25;;;5.65;;
25351;SDS011;13304;48.464;8.712;2023-06-26T10:29:51;9.93;;;5.32;;
25351;SDS011;13304;48.464;8.712;2023-06-26T10:32:21;5.78;;;5.18;;
25351;SDS011;13304;48.464;8.712;2023-06-26T10:34:50;11.27;;;6.05;;
25351;SDS011;13304;48.464;8.712;2023-06-26T10:37:18;6.43;;;5.47;;
25351;SDS011;13304;48.464;8.712;2023-06-26T10:39:51;8.77;;;5.72;;
25351;SDS011;13304;48.464;8.712;2023-06-26T10:42:20;8.55;;;6.03;;
25351;SDS011;13304;48.464;8.712;2023-06-26T10:44:59;7.32;;;5.45;;
25351;SDS011;13304;48.464;8.712;2023-06-26T10:47:41;6.97;;;6.15;;
25351;SDS011;13304;48.464;8.712;2023-06-26T10:52:45;9.88;;;5.80;;
25351;SDS011;13304;48.464;8.712;2023-06-26T10:55:12;7.32;;;5.75;;
25351;SDS011;13304;48.464;8.712;2023-06-26T10:57:39;7.22;;;5.88;;
25351;SDS011;13304;48.464;8.712;2023-06-26T11:00:09;6.35;;;5.47;;
25351;SDS011;13304;48.464;8.712;2023-06-26T11:02:49;9.48;;;5.57;;
25351;SDS011;13304;48.464;8.712;2023-06-26T11:08:07;9.35;;;5.88;;
25351;SDS011;13304;48.464;8.712;2023-06-26T11:10:53;7.07;;;6.32;;
25351;SDS011;13304;48.464;8.712;2023-06-26T11:13:21;6.35;;;5.55;;
25351;SDS011;13304;48.464;8.712;2023-06-26T11:15:47;6.93;;;5.72;;
25351;SDS011;13304;48.464;8.712;2023-06-26T11:18:15;8.60;;;6.13;;
25351;SDS011;13304;48.464;8.712;2023-06-26T11:20:41;10.52;;;6.15;;
25351;SDS011;13304;48.464;8.712;2023-06-26T11:23:09;10.75;;;5.60;;
25351;SDS011;13304;48.464;8.712;2023-06-26T11:25:36;11.90;;;5.72;;
25351;SDS011;13304;48.464;8.712;2023-06-26T11:28:03;12.43;;;6.03;;
25351;SDS011;13304;48.464;8.712;2023-06-26T11:30:30;11.40;;;5.78;;
25351;SDS011;13304;48.464;8.712;2023-06-26T11:33:06;8.23;;;5.88;;
25351;SDS011;13304;48.464;8.712;2023-06-26T11:35:32;8.80;;;6.38;;
25351;SDS011;13304;48.464;8.712;2023-06-26T11:37:59;8.52;;;5.80;;
25351;SDS011;13304;48.464;8.712;2023-06-26T11:40:30;10.85;;;5.85;;
25351;SDS011;13304;48.464;8.712;2023-06-26T11:42:58;6.30;;;5.70;;
25351;SDS011;13304;48.464;8.712;2023-06-26T11:45:27;8.15;;;6.20;;
25351;SDS011;13304;48.464;8.712;2023-06-26T11:47:55;11.20;;;6.35;;
25351;SDS011;13304;48.464;8.712;2023-06-26T11:50:21;12.93;;;5.82;;
25351;SDS011;13304;48.464;8.712;2023-06-26T11:52:52;9.00;;;6.05;;
25351;SDS011;13304;48.464;8.712;2023-06-26T11:55:20;8.68;;;6.30;;
25351;SDS011;13304;48.464;8.712;2023-06-26T11:57:55;10.20;;;6.05;;
25351;SDS011;13304;48.464;8.712;2023-06-26T12:00:22;7.63;;;5.95;;
25351;SDS011;13304;48.464;8.712;2023-06-26T12:02:48;8.95;;;6.22;;
25351;SDS011;13304;48.464;8.712;2023-06-26T12:05:18;11.55;;;5.90;;
25351;SDS011;13304;48.464;8.712;2023-06-26T12:07:46;6.38;;;5.53;;
25351;SDS011;13304;48.464;8.712;2023-06-26T12:10:13;10.18;;;5.72;;
25351;SDS011;13304;48.464;8.712;2023-06-26T12:12:40;10.05;;;6.25;;
25351;SDS011;13304;48.464;8.712;2023-06-26T12:15:07;11.27;;;6.78;;
25351;SDS011;13304;48.464;8.712;2023-06-26T12:17:37;9.80;;;6.25;;
25351;SDS011;13304;48.464;8.712;2023-06-26T12:20:17;9.55;;;5.75;;
25351;SDS011;13304;48.464;8.712;2023-06-26T12:22:45;7.90;;;6.03;;
25351;SDS011;13304;48.464;8.712;2023-06-26T12:25:12;8.32;;;5.93;;
25351;SDS011;13304;48.464;8.712;2023-06-26T12:27:38;9.73;;;6.07;;
25351;SDS011;13304;48.464;8.712;2023-06-26T12:30:04;10.43;;;6.10;;
25351;SDS011;13304;48.464;8.712;2023-06-26T12:32:30;8.13;;;5.55;;
25351;SDS011;13304;48.464;8.712;2023-06-26T12:34:58;9.32;;;5.93;;
25351;SDS011;13304;48.464;8.712;2023-06-26T12:37:25;6.47;;;5.43;;
25351;SDS011;13304;48.464;8.712;2023-06-26T12:39:55;11.02;;;5.60;;
25351;SDS011;13304;48.464;8.712;2023-06-26T12:42:23;8.80;;;5.53;;
25351;SDS011;13304;48.464;8.712;2023-06-26T12:44:50;7.38;;;5.70;;
25351;SDS011;13304;48.464;8.712;2023-06-26T12:47:17;6.85;;;5.50;;
25351;SDS011;13304;48.464;8.712;2023-06-26T12:49:45;8.13;;;5.97;;
25351;SDS011;13304;48.464;8.712;2023-06-26T12:52:15;6.28;;;5.40;;
25351;SDS011;13304;48.464;8.712;2023-06-26T12:54:41;11.50;;;6.63;;
25351;SDS011;13304;48.464;8.712;2023-06-26T12:57:08;9.50;;;6.30;;
25351;SDS011;13304;48.464;8.712;2023-06-26T12:59:38;10.52;;;6.05;;
25351;SDS011;13304;48.464;8.712;2023-06-26T13:02:07;15.50;;;6.10;;
25351;SDS011;13304;48.464;8.712;2023-06-26T13:04:33;9.00;;;6.40;;
25351;SDS011;13304;48.464;8.712;2023-06-26T13:07:00;8.90;;;6.38;;
25351;SDS011;13304;48.464;8.712;2023-06-26T13:09:26;8.27;;;5.70;;
25351;SDS011;13304;48.464;8.712;2023-06-26T13:11:52;6.72;;;5.47;;
25351;SDS011;13304;48.464;8.712;2023-06-26T13:14:19;13.75;;;5.95;;
25351;SDS011;13304;48.464;8.712;2023-06-26T13:16:45;6.65;;;5.65;;
25351;SDS011;13304;48.464;8.712;2023-06-26T13:19:11;7.13;;;5.20;;
25351;SDS011;13304;48.464;8.712;2023-06-26T13:21:37;5.82;;;4.95;;
25351;SDS011;13304;48.464;8.712;2023-06-26T13:24:03;10.95;;;5.82;;
25351;SDS011;13304;48.464;8.712;2023-06-26T13:26:30;7.57;;;5.25;;
25351;SDS011;13304;48.464;8.712;2023-06-26T13:28:57;8.38;;;5.25;;
25351;SDS011;13304;48.464;8.712;2023-06-26T13:31:24;9.23;;;5.30;;
25351;SDS011;13304;48.464;8.712;2023-06-26T13:33:49;14.05;;;6.63;;
25351;SDS011;13304;48.464;8.712;2023-06-26T13:36:17;10.23;;;5.85;;
25351;SDS011;13304;48.464;8.712;2023-06-26T13:38:43;7.85;;;5.25;;
25351;SDS011;13304;48.464;8.712;2023-06-26T13:41:09;8.93;;;5.68;;
25351;SDS011;13304;48.464;8.712;2023-06-26T13:43:35;7.03;;;5.07;;
25351;SDS011;13304;48.464;8.712;2023-06-26T13:46:01;7.68;;;5.10;;
25351;SDS011;13304;48.464;8.712;2023-06-26T13:48:28;8.88;;;4.97;;
25351;SDS011;13304;48.464;8.712;2023-06-26T13:50:56;15.25;;;5.55;;
25351;SDS011;13304;48.464;8.712;2023-06-26T13:53:23;8.45;;;6.40;;
25351;SDS011;13304;48.464;8.712;2023-06-26T13:55:49;5.22;;;4.72;;
25351;SDS011;13304;48.464;8.712;2023-06-26T13:58:15;7.82;;;4.72;;
25351;SDS011;13304;48.464;8.712;2023-06-26T14:00:40;6.90;;;4.80;;
25351;SDS011;13304;48.464;8.712;2023-06-26T14:03:09;5.30;;;4.38;;
25351;SDS011;13304;48.464;8.712;2023-06-26T14:05:35;6.07;;;4.63;;
25351;SDS011;13304;48.464;8.712;2023-06-26T14:08:02;5.90;;;5.05;;
25351;SDS011;13304;48.464;8.712;2023-06-26T14:10:29;6.93;;;4.93;;
25351;SDS011;13304;48.464;8.712;2023-06-26T14:12:55;10.18;;;5.00;;
25351;SDS011;13304;48.464;8.712;2023-06-26T14:15:21;7.93;;;4.97;;
25351;SDS011;13304;48.464;8.712;2023-06-26T14:17:47;7.60;;;5.10;;
25351;SDS011;13304;48.464;8.712;2023-06-26T14:20:15;7.83;;;4.83;;
25351;SDS011;13304;48.464;8.712;2023-06-26T14:22:42;8.20;;;5.30;;
25351;SDS011;13304;48.464;8.712;2023-06-26T14:25:13;9.77;;;4.97;;
25351;SDS011;13304;48.464;8.712;2023-06-26T14:27:39;12.93;;;4.93;;
25351;SDS011;13304;48.464;8.712;2023-06-26T14:30:05;6.05;;;4.55;;
25351;SDS011;13304;48.464;8.712;2023-06-26T14:32:32;10.15;;;4.78;;
25351;SDS011;13304;48.464;8.712;2023-06-26T14:34:58;10.48;;;4.28;;
25351;SDS011;13304;48.464;8.712;2023-06-26T14:37:24;5.75;;;4.07;;
25351;SDS011;13304;48.464;8.712;2023-06-26T14:39:50;6.88;;;4.18;;
25351;SDS011;13304;48.464;8.712;2023-06-26T14:42:16;4.72;;;3.63;;
25351;SDS011;13304;48.464;8.712;2023-06-26T14:44:42;6.20;;;4.22;;
25351;SDS011;13304;48.464;8.712;2023-06-26T14:47:11;7.88;;;4.32;;
25351;SDS011;13304;48.464;8.712;2023-06-26T14:49:37;5.75;;;4.18;;
25351;SDS011;13304;48.464;8.712;2023-06-26T14:52:03;5.55;;;3.97;;
25351;SDS011;13304;48.464;8.712;2023-06-26T14:54:29;7.78;;;4.03;;